• Join FlightAware (Why Join?)
  • Login
  • US Flag 
08:13AM EDT


 

Airport Tracker/Info


-or-


 

Live Flight TrackerFlight Track Log ✈ UAL252 ✈ 11-Jun-2013 ✈ KIAH - KDCA

Flight Track Log - Related Links

Times and Time Zones

All times are in EDT time to prevent confusion due to time zone crossing. See the UAL252 flight status page for this flight to view local times or setup timezone preferences in your user account.

Time Position Orientation Groundspeed Altitude Reporting Facility
EDT Latitude Longitude Course Direction KTS MPH feet Rate Location/Type
08:06PM 29.9619 -95.3458 41° Northeast 143 165 800  Level Houston Center
08:07PM 29.9475 -95.3717 237° Southwest 198 228 1,800 1,680 Climbing Houston Center
08:08PM 29.9969 -95.3844 347° North 229 264 3,800 2,040 Climbing Houston Center
08:09PM 30.3690 -95.0248 35° Northeast  Level FlightAware Approximate
08:09PM 30.0658 -95.3414 28° Northeast 277 319 6,000  Level Houston Center
08:10PM 30.4622 -94.9419 30° Northeast  Level FlightAware Approximate
08:10PM 30.1450 -95.2803 34° Northeast 308 354 10,100  Level Houston Center
08:11PM 30.5625 -94.8708 41° Northeast  Level FlightAware Approximate
08:11PM 30.2139 -95.2092 42° Northeast 318 366 12,200  Level Houston Center
08:12PM 30.2864 -95.1311 43° Northeast 352 405 15,100 2,580 Climbing Houston Center
08:13PM 30.3597 -95.0539 42° Northeast 356 410 17,600 2,400 Climbing Houston Center
08:14PM 30.4475 -94.9719 39° Northeast 371 427 20,100 2,160 Climbing Houston Center
08:15PM 30.5361 -94.9056 33° Northeast 377 434 22,100 1,800 Climbing Houston Center
08:16PM 30.6269 -94.8356 34° Northeast 390 449 23,900 1,800 Climbing Houston Center
08:17PM 30.7189 -94.7644 34° Northeast 395 455 25,800 1,620 Climbing Houston Center
08:18PM 30.8142 -94.6903 34° Northeast 409 471 27,300 1,500 Climbing Houston Center
08:19PM 30.9303 -94.6011 33° Northeast 419 482 28,900 780 Climbing Houston Center
08:20PM 31.0275 -94.5250 34° Northeast 424 488 29,000 660 Climbing Houston Center
08:21PM 31.1242 -94.4497 34° Northeast 422 486 30,300 1,200 Climbing Houston Center
08:22PM 31.2247 -94.3714 34° Northeast 434 499 31,500 1,020 Climbing Houston Center
08:23PM 31.3292 -94.2914 33° Northeast 447 514 32,500 1,080 Climbing Houston Center
08:24PM 31.4364 -94.2081 34° Northeast 460 529 33,800 1,200 Climbing Houston Center
08:25PM 31.5619 -94.1092 34° Northeast 457 526 35,000 540 Climbing Houston Center
08:26PM 31.6678 -94.0272 33° Northeast 455 524 35,000  Level Houston Center
08:27PM 31.7731 -93.9431 34° Northeast 457 526 35,000  Level Houston Center
08:28PM 31.8650 -93.8561 39° Northeast 454 522 35,000  Level Houston Center
08:29PM 31.9561 -93.7497 45° Northeast 456 525 35,000  Level Houston Center
08:30PM 32.0644 -93.6219 45° Northeast 458 527 35,000  Level Houston Center
08:31PM 32.1542 -93.5161 45° Northeast 457 526 35,000 120 Level Houston Center
08:32PM 32.1711 -93.4892 53° Northeast 449 517 35,200 840 Climbing Fort Worth Center
08:33PM 32.2697 -93.3719 45° Northeast 449 517 36,100 1,140 Climbing Fort Worth Center
08:34PM 32.3481 -93.2797 45° Northeast 449 517 37,500 1,140 Climbing Fort Worth Center
08:35PM 32.4383 -93.1722 45° Northeast 449 517 38,400 720 Climbing Fort Worth Center
08:36PM 32.5286 -93.0669 45° Northeast 449 517 39,000 300 Climbing Fort Worth Center
08:37PM 32.6192 -92.9642 44° Northeast 449 517 39,000  Level Fort Worth Center
08:38PM 32.7069 -92.8561 46° Northeast 449 517 39,000  Level Fort Worth Center
08:39PM 32.7950 -92.7503 45° Northeast 449 517 39,000  Level Fort Worth Center
08:40PM 32.8850 -92.6467 44° Northeast 449 517 39,000  Level Fort Worth Center
08:41PM 32.9706 -92.5406 46° Northeast 449 517 39,100  Climbing Fort Worth Center
08:42PM 33.0583 -92.4367 45° Northeast 449 517 39,000 -60 Descending Fort Worth Center
08:43PM 33.1958 -92.2739 45° Northeast 427 491 39,000  Level Memphis Center
08:44PM 33.2958 -92.1567 44° Northeast 433 498 39,000  Level Memphis Center
08:45PM 33.3808 -92.0514 46° Northeast 439 505 39,000  Level Memphis Center
08:46PM 33.4656 -91.9483 45° Northeast 439 505 39,000  Level Memphis Center
08:47PM 33.5589 -91.8306 46° Northeast 446 513 39,100  Climbing Memphis Center
08:48PM 33.6372 -91.7369 45° Northeast 446 513 39,000 -60 Descending Memphis Center
08:49PM 33.7133 -91.6333 49° Northeast 430 495 39,000  Level Memphis Center
08:50PM 33.7936 -91.5294 47° Northeast 430 495 39,000  Level Memphis Center
08:51PM 33.8803 -91.4231 46° Northeast 425 489 39,000  Level Memphis Center
08:52PM 33.9731 -91.3114 45° Northeast 420 483 39,000  Level Memphis Center
08:53PM 34.0592 -91.2072 45° Northeast 427 491 39,000  Level Memphis Center
08:54PM 34.1414 -91.1025 46° Northeast 422 486 39,000  Level Memphis Center
08:55PM 34.2233 -90.9978 47° Northeast 422 486 39,000  Level Memphis Center
08:56PM 34.3114 -90.8903 45° Northeast 432 497 39,000  Level Memphis Center
08:57PM 34.3933 -90.7825 47° Northeast 427 491 39,000  Level Memphis Center
08:58PM 34.4792 -90.6772 45° Northeast 427 491 39,000  Level Memphis Center
08:59PM 34.5669 -90.5664 46° Northeast 427 491 39,000  Level Memphis Center
09:00PM 34.6506 -90.4581 47° Northeast 432 497 39,000  Level Memphis Center
09:01PM 34.7258 -90.3622 46° Northeast 432 497 39,000  Level Memphis Center
09:02PM 34.8111 -90.2558 46° Northeast 432 497 39,000  Level Memphis Center
09:03PM 34.8986 -90.1444 46° Northeast 439 505 39,000  Level Memphis Center
09:04PM 34.9861 -90.0353 46° Northeast 444 511 39,000  Level Memphis Center
09:05PM 35.0711 -89.9031 52° Northeast 449 517 39,000  Level Memphis Center
09:06PM 35.1394 -89.7731 57° Northeast 449 517 39,000  Level Memphis Center
09:07PM 35.2097 -89.6481 55° Northeast 449 517 39,000  Level Memphis Center
09:08PM 35.2778 -89.5228 56° Northeast 443 510 39,000  Level Memphis Center
09:09PM 35.3458 -89.3975 56° Northeast 443 510 39,000  Level Memphis Center
09:10PM 35.4156 -89.2769 55° Northeast 443 510 39,000  Level Memphis Center
09:11PM 35.4750 -89.1639 57° Northeast 443 510 39,000  Level Memphis Center
09:12PM 35.5469 -89.0403 54° Northeast 443 510 39,000  Level Memphis Center
09:13PM 35.6142 -88.9167 56° Northeast 443 510 39,000  Level Memphis Center
09:14PM 35.6794 -88.7903 58° Northeast 443 510 39,000  Level Memphis Center
09:15PM 35.7467 -88.6689 56° Northeast 437 503 39,000  Level Memphis Center
09:16PM 35.8136 -88.5419 57° Northeast 437 503 39,000  Level Memphis Center
09:17PM 35.8828 -88.4200 55° Northeast 437 503 39,000  Level Memphis Center
09:18PM 35.9517 -88.2981 55° Northeast 437 503 39,000  Level Memphis Center
09:19PM 36.0183 -88.1706 57° Northeast 442 509 39,000  Level Memphis Center
09:20PM 36.0850 -88.0531 55° Northeast 437 503 39,000  Level Memphis Center
09:21PM 36.1536 -87.9278 56° Northeast 436 502 39,000  Level Memphis Center
09:22PM 36.2197 -87.8050 56° Northeast 431 496 39,000  Level Memphis Center
09:23PM 36.2919 -87.6689 57° Northeast 431 496 39,000  Level Memphis Center
09:24PM 36.3581 -87.5431 57° Northeast 431 496 39,000  Level Memphis Center
09:25PM 36.4258 -87.4167 56° Northeast 431 496 39,000  Level Memphis Center
09:26PM 36.4917 -87.2931 56° Northeast 431 496 39,000 -60 Level Memphis Center
09:27PM 36.5575 -87.1692 56° Northeast 431 496 38,900  Descending Memphis Center
09:28PM 36.6228 -87.0425 57° Northeast 431 496 39,000  Climbing Memphis Center
09:29PM 36.6803 -86.9289 58° Northeast 431 496 39,000  Level Memphis Center
09:30PM 36.7475 -86.7992 57° Northeast 431 496 39,000  Level Memphis Center
09:31PM 36.8125 -86.6692 58° Northeast 431 496 39,100  Climbing Memphis Center
09:32PM 36.8664 -86.5294 64° Northeast 444 511 39,000 -60 Descending Memphis Center
09:33PM 36.8969 -86.3747 76° East 444 511 39,000  Level Memphis Center
09:34PM 36.9072 -86.3211 77° East 454 522 39,000  Level Indianapolis Center
09:35PM 36.9372 -86.1667 76° East 451 519 39,000  Level Indianapolis Center
09:36PM 36.9656 -86.0139 77° East 449 517 39,000  Level Indianapolis Center
09:37PM 36.9942 -85.8617 77° East 445 512 39,000  Level Indianapolis Center
09:38PM 37.0233 -85.7081 77° East 449 517 39,000  Level Indianapolis Center
09:39PM 37.0514 -85.5572 77° East 444 511 39,000  Level Indianapolis Center
09:40PM 37.0800 -85.4033 77° East 440 506 39,000  Level Indianapolis Center
09:41PM 37.1064 -85.2533 78° East 441 507 39,000  Level Indianapolis Center
09:42PM 37.1331 -85.1039 77° East 439 505 39,000  Level Indianapolis Center
09:43PM 37.1600 -84.9544 77° East 439 505 39,000  Level Indianapolis Center
09:44PM 37.1864 -84.8031 78° East 442 509 39,000  Level Indianapolis Center
09:45PM 37.2183 -84.6258 77° East 444 511 39,000  Level Indianapolis Center
09:46PM 37.2464 -84.4728 77° East 448 516 39,000  Level Indianapolis Center
09:47PM 37.2725 -84.3206 78° East 445 512 39,000  Level Indianapolis Center
09:48PM 37.2992 -84.1664 78° East 447 514 39,000  Level Indianapolis Center
09:49PM 37.3256 -84.0139 78° East 447 514 39,000  Level Indianapolis Center
09:50PM 37.3522 -83.8592 78° East 452 520 39,000  Level Indianapolis Center
09:51PM 37.3775 -83.7075 78° East 444 511 39,000  Level Indianapolis Center
09:52PM 37.4036 -83.5536 78° East 447 514 39,000 -300 Level Indianapolis Center
09:53PM 37.4294 -83.3964 78° East 452 520 38,500 -780 Descending Indianapolis Center
09:54PM 37.4558 -83.2389 78° East 457 526 37,500 -780 Descending Indianapolis Center
09:55PM 37.4856 -83.0536 79° East 461 531 37,000 -300 Descending Indianapolis Center
09:56PM 37.5106 -82.8986 78° East 450 518 37,000  Level Indianapolis Center
09:57PM 37.5358 -82.7417 78° East 452 520 37,000  Level Indianapolis Center
09:58PM 37.5614 -82.5858 78° East 452 520 37,000  Level Indianapolis Center
09:59PM 37.5856 -82.4289 79° East 453 521 37,000  Level Indianapolis Center
10:00PM 37.6097 -82.2711 79° East 456 525 37,000  Level Indianapolis Center
10:01PM 37.6342 -82.1172 79° East 449 517 37,000  Level Indianapolis Center
10:02PM 37.6578 -81.9606 79° East 452 520 37,000  Level Indianapolis Center
10:03PM 37.6814 -81.8047 79° East 452 520 37,000  Level Indianapolis Center
10:04PM 37.7039 -81.6478 80° East 452 520 37,000  Level Indianapolis Center
10:05PM 37.7289 -81.4833 79° East 455 524 37,000  Level Indianapolis Center
10:06PM 37.7508 -81.3317 80° East 454 522 37,000  Level Indianapolis Center
10:07PM 37.7731 -81.1797 79° East 454 522 37,000  Level Indianapolis Center
10:08PM 37.8222 -81.0072 70° East 446 513 37,000  Level Indianapolis Center
10:09PM 37.8744 -80.8594 66° East 442 509 37,000  Level Indianapolis Center
10:11PM 37.9250 -80.7183 66° East 442 509 37,000  Level Indianapolis Center
10:12PM 37.9733 -80.5756 67° East 442 509 37,100  Climbing Indianapolis Center
10:13PM 38.0233 -80.4242 67° East 443 510 37,000 -60 Descending Indianapolis Center
10:14PM 38.0708 -80.2897 66° East 438 504 37,000  Level Washington Center
10:15PM 38.1181 -80.1472 67° East 438 504 37,000 -60 Level Washington Center
10:16PM 38.1672 -80.0025 67° East 438 504 36,900 -900 Descending Washington Center
10:17PM 38.2075 -79.8675 69° East 445 512 35,300 -1,560 Descending Washington Center
10:18PM 38.2564 -79.7247 66° East 445 512 33,800 -1,560 Descending Washington Center
10:19PM 38.3008 -79.5792 69° East 445 512 32,200 -1,380 Descending Washington Center
10:20PM 38.3497 -79.4281 68° East 445 512 31,200 -1,140 Descending Washington Center
10:21PM 38.4008 -79.2639 68° East 445 512 30,000 -1,620 Descending Washington Center
10:22PM 38.4492 -79.1125 68° East 450 518 28,000 -1,560 Descending Washington Center
10:23PM 38.4869 -78.9578 73° East 450 518 26,900 -1,440 Descending Washington Center
10:24PM 38.5094 -78.8153 79° East 450 518 25,200 -1,800 Descending Washington Center
10:25PM 38.5322 -78.6625 79° East 445 512 23,400 -1,860 Descending Washington Center
10:26PM 38.5547 -78.5147 79° East 438 504 21,500 -1,860 Descending Washington Center
10:27PM 38.5769 -78.3722 79° East 426 490 19,700 -1,800 Descending Washington Center
10:28PM 38.6028 -78.2350 76° East 403 464 18,000 -1,800 Descending Washington Center
10:29PM 38.6431 -78.1114 67° East 380 437 16,200 -1,560 Descending Washington Center
10:30PM 38.6789 -77.9956 68° East 366 421 14,900 -1,260 Descending Washington Center
10:31PM 38.7142 -77.8878 67° East 347 399 13,700 -1,200 Descending Washington Center
10:32PM 38.7578 -77.7906 60° Northeast 322 371 12,500 -1,440 Descending Washington Center
10:33PM 38.8178 -77.7019 49° Northeast 305 351 10,900 -1,440 Descending Washington Center
10:34PM 38.8667 -77.6000 58° Northeast 308 354 9,700 -1,260 Descending Potomac TRACON
10:35PM 38.9000 -77.5000 67° East 305 351 8,500 -1,200 Descending Potomac TRACON
10:36PM 38.8833 -77.4000 102° East 314 361 7,300 -1,260 Descending Potomac TRACON
10:37PM 38.8500 -77.3000 113° Southeast 312 359 6,000 -660 Descending Potomac TRACON
10:38PM 38.8000 -77.2000 123° Southeast 313 360 6,000  Level Potomac TRACON
10:39PM 38.7667 -77.1167 117° Southeast 274 315 6,000 -600 Level Potomac TRACON
10:40PM 38.7000 -77.1000 169° South 256 295 4,900 -1,320 Descending Potomac TRACON
10:41PM 38.6833 -77.0333 108° East 216 249 3,400 -1,500 Descending Potomac TRACON